Zhetygen Airport

Jump to: basic info | weather | comments

Related pages: nearby airports | nearby navaids

Basic information (top)

Location: lon 43.733101, lat 77.119400, elev 1,638 ft / 499 m msl
Status: small_airport

Weather (top)

Current conditions for Almaty Airport 23nm (43km) S (rec'd 2014/10/20 22:30Z):

UAAA 202230Z 22002MPS 9999 SCT100 BKN200 10/04 Q1014 R88/65D NOSIG

Airport forecast for Almaty Airport 23nm (43km) S (rec'd 2014/10/20 18:18Z):

TAF TAF UAAA 201700Z 2018/2118 24006MPS 5000 BR FU BKN030CB BKN100 TX12/2108Z TN08/2101Z 
      TEMPO 2018/2106 VRB15MPS TSRA SQ BKN010CB OVC100 
      TEMPO 2106/2118 32010MPS 3000 SHRA BKN006 OVC010CB

Latest comments (top)

No comments yet for Zhetygen Airport

More... (top)

See also NOTAMs and nearby airports and navaids, or visit the Zhetygen Airport page at the main OurAirports website..